Impacts TAF Board INFO
FOR SITUATIONAL AWARENESS. NOT TO BE USED FOR FLIGHT PLANNING PURPOSES.
IDs:

KDCA - Washington/National, VA, US

Issued at 2322 UTC 12 Dec 2017
Updated at 0123 UTC 13 Dec 2017
Potential Impact None Slight Moderate High
Time<<13/14Z 13/15Z 13/16Z 13/17Z 13/18Z 13/19Z 13/20Z 13/21Z 13/22Z 13/23Z 14/00Z 14/01Z 14/02Z>>
Type PRVL PRVL PRVL PRVL PRVL PRVL PRVL PRVL PRVL PRVL PRVL PRVL PRVL
VIS >6 >6 >6 >6 >6 >6 >6 >6 >6 >6 >6 >6 >6
CIG -- -- -- -- -- -- -- -- -- 60 60 60 60
Cover FEW FEW FEW FEW FEW FEW FEW FEW FEW BKN BKN BKN BKN
FltCat VFR VFR VFR VFR VFR VFR VFR VFR VFR VFR VFR VFR VFR
WX -- -- -- -- -- -- -- -- -- -- -- -- --
WDir 280 280 280 280 280 280 280 280 280 230 230 230 230
WSpd 15 15 15 15 15 15 15 15 15 7 7 7 7
WGst 22 22 22 22 22 22 22 22 22 -- -- -- --

Raw TAF
KDCA 122322Z 1300/1406 31019G34KT P6SM FEW050 BKN090
  FM130300 30017G34KT P6SM FEW060 SCT250
  FM131100 28015G22KT P6SM FEW060 FEW250
  FM132300 23007KT P6SM BKN060 BKN070


METAR Board
Radar Display
Forecast Discussion

FOR SITUATIONAL AWARENESS. NOT TO BE USED FOR FLIGHT PLANNING PURPOSES.